createdAt,value
2017-11-29T00:01:53.709Z,2.92
2017-11-29T00:04:21.849Z,3.03
2017-11-29T00:06:49.945Z,2.53
2017-11-29T00:09:18.081Z,2.35
2017-11-29T00:11:46.312Z,3.15
2017-11-29T00:14:15.168Z,2.40
2017-11-29T00:16:44.056Z,2.75
2017-11-29T00:19:12.183Z,2.60
2017-11-29T00:21:40.291Z,2.78
2017-11-29T00:24:08.423Z,5.85
2017-11-29T00:26:36.538Z,3.67
2017-11-29T00:29:04.724Z,2.73
2017-11-29T00:31:33.599Z,2.67
2017-11-29T00:34:01.908Z,3.12
2017-11-29T00:36:30.040Z,2.50
2017-11-29T00:38:58.164Z,2.97
2017-11-29T00:41:26.829Z,2.65
2017-11-29T00:43:55.707Z,3.57
2017-11-29T00:46:24.614Z,2.45
2017-11-29T00:48:52.725Z,2.78
2017-11-29T00:51:20.929Z,2.90
2017-11-29T00:53:49.152Z,2.40
2017-11-29T00:56:17.261Z,2.72
2017-11-29T00:58:45.489Z,2.85
2017-11-29T01:01:14.369Z,3.90
2017-11-29T01:03:42.487Z,2.40
2017-11-29T01:06:10.623Z,2.22
2017-11-29T01:08:38.736Z,4.28
2017-11-29T01:11:08.382Z,2.47
2017-11-29T01:13:37.263Z,2.70
2017-11-29T01:16:06.151Z,2.55
2017-11-29T01:18:35.019Z,2.75
2017-11-29T01:21:03.245Z,2.55
2017-11-29T01:23:32.105Z,4.72
2017-11-29T01:26:01.000Z,2.97
2017-11-29T01:28:29.865Z,2.72
2017-11-29T01:30:58.022Z,2.75
2017-11-29T01:33:26.130Z,3.30
2017-11-29T01:35:55.014Z,3.95
2017-11-29T01:38:23.883Z,2.80
2017-11-29T01:40:52.014Z,3.20
2017-11-29T01:43:20.159Z,3.50
2017-11-29T01:45:49.068Z,3.42
2017-11-29T01:48:17.929Z,4.25
2017-11-29T01:50:46.832Z,4.20
2017-11-29T01:53:15.698Z,3.67
2017-11-29T01:55:43.913Z,3.87
2017-11-29T01:58:12.805Z,3.60
2017-11-29T02:00:48.919Z,4.00
2017-11-29T02:03:17.057Z,4.70
2017-11-29T02:05:45.172Z,4.50
2017-11-29T02:08:13.421Z,4.50
2017-11-29T02:10:41.574Z,3.92
2017-11-29T02:13:09.686Z,4.40
2017-11-29T02:15:38.618Z,4.50
2017-11-29T02:18:07.469Z,3.92
2017-11-29T02:20:36.362Z,4.35
2017-11-29T02:23:05.240Z,4.18
2017-11-29T02:25:33.369Z,3.47
2017-11-29T02:28:01.483Z,3.20
2017-11-29T02:30:29.598Z,3.65
2017-11-29T02:32:57.721Z,3.80
2017-11-29T02:35:25.847Z,4.40
2017-11-29T02:37:53.986Z,3.95
2017-11-29T02:43:18.681Z,3.20
2017-11-29T02:45:46.796Z,4.53
2017-11-29T02:48:14.926Z,3.95
2017-11-29T02:50:43.066Z,3.25
2017-11-29T02:53:11.176Z,3.70
2017-11-29T02:55:39.349Z,3.60
2017-11-29T02:58:07.463Z,3.95
2017-11-29T03:00:35.593Z,4.22
2017-11-29T03:03:03.720Z,6.85
2017-11-29T03:05:31.835Z,3.78
2017-11-29T03:07:59.965Z,3.97
2017-11-29T03:10:28.078Z,3.58
2017-11-29T03:12:56.208Z,4.53
2017-11-29T03:15:24.318Z,5.03
2017-11-29T03:17:52.453Z,4.62
2017-11-29T03:20:20.572Z,4.62
2017-11-29T03:22:49.457Z,4.20
2017-11-29T03:25:17.588Z,4.35
2017-11-29T03:27:45.712Z,4.10
2017-11-29T03:30:14.629Z,3.80
2017-11-29T03:32:42.728Z,4.47
2017-11-29T03:35:10.835Z,4.25
2017-11-29T03:37:39.004Z,4.07
2017-11-29T03:40:07.084Z,3.37
2017-11-29T03:42:35.984Z,4.00
2017-11-29T03:45:04.863Z,4.62
2017-11-29T03:47:33.767Z,2.70
2017-11-29T03:50:02.749Z,4.22
2017-11-29T03:52:31.631Z,4.00
2017-11-29T03:54:59.754Z,4.03
2017-11-29T03:57:28.876Z,4.10
2017-11-29T03:59:57.117Z,3.70
2017-11-29T04:02:25.247Z,3.35
2017-11-29T04:04:53.360Z,3.70
2017-11-29T04:07:21.485Z,3.83
2017-11-29T04:09:49.614Z,3.33
2017-11-29T04:12:17.793Z,4.03
2017-11-29T04:14:45.921Z,3.60
2017-11-29T04:17:14.814Z,3.42
2017-11-29T04:19:43.730Z,3.60
2017-11-29T04:22:11.843Z,4.10
2017-11-29T04:24:39.977Z,4.10
2017-11-29T04:27:08.094Z,4.20
2017-11-29T04:29:36.218Z,4.00
2017-11-29T04:32:04.353Z,4.18
2017-11-29T04:34:33.237Z,3.65
2017-11-29T04:37:01.455Z,4.07
2017-11-29T04:39:29.552Z,4.47
2017-11-29T04:41:57.693Z,4.97
2017-11-29T04:44:26.110Z,3.80
2017-11-29T04:46:54.228Z,4.43
2017-11-29T04:49:22.353Z,4.50
2017-11-29T04:51:50.483Z,4.40
2017-11-29T04:54:18.643Z,4.07
2017-11-29T04:56:46.772Z,4.60
2017-11-29T04:59:14.882Z,4.37
2017-11-29T05:01:43.033Z,4.05
2017-11-29T05:04:11.147Z,4.15
2017-11-29T05:06:39.262Z,3.78
2017-11-29T05:09:07.393Z,3.70
2017-11-29T05:11:35.502Z,5.10
2017-11-29T05:14:03.632Z,4.23
2017-11-29T05:16:31.764Z,4.00
2017-11-29T05:18:59.878Z,4.62
2017-11-29T05:21:28.000Z,4.40
2017-11-29T05:23:57.616Z,4.30
2017-11-29T05:26:25.740Z,4.20
2017-11-29T05:28:53.856Z,4.10
2017-11-29T05:31:21.981Z,4.20
2017-11-29T05:33:50.093Z,4.85
2017-11-29T05:36:18.217Z,3.97
2017-11-29T05:38:46.326Z,4.20
2017-11-29T05:41:14.452Z,4.68
2017-11-29T05:43:42.588Z,4.97
2017-11-29T05:46:12.217Z,4.90
2017-11-29T05:48:41.112Z,5.05
2017-11-29T05:51:10.019Z,4.60
2017-11-29T05:53:38.886Z,5.18
2017-11-29T05:56:07.764Z,6.18
2017-11-29T05:58:35.920Z,4.00
2017-11-29T06:01:05.579Z,4.68
2017-11-29T06:03:33.712Z,4.05
2017-11-29T06:06:01.806Z,4.35
2017-11-29T06:08:29.943Z,4.95
2017-11-29T06:10:58.829Z,4.35
2017-11-29T06:13:26.952Z,4.80
2017-11-29T06:15:55.063Z,5.97
2017-11-29T06:18:23.200Z,6.15
2017-11-29T06:20:51.326Z,5.97
2017-11-29T06:23:19.454Z,6.20
2017-11-29T06:25:47.587Z,4.80
2017-11-29T06:28:16.477Z,5.90
2017-11-29T06:30:45.364Z,4.87
2017-11-29T06:33:14.255Z,5.32
2017-11-29T06:35:43.132Z,6.35
2017-11-29T06:38:11.258Z,5.40
2017-11-29T06:40:39.390Z,5.28
2017-11-29T06:43:08.290Z,5.45
2017-11-29T06:45:37.160Z,6.18
2017-11-29T06:48:05.280Z,6.30
2017-11-29T06:50:33.392Z,5.95
2017-11-29T06:53:01.621Z,5.90
2017-11-29T06:55:30.482Z,6.85
2017-11-29T06:57:59.371Z,5.62
2017-11-29T07:00:28.254Z,8.10
2017-11-29T07:02:57.181Z,5.87
2017-11-29T07:05:25.276Z,6.03
2017-11-29T07:07:53.396Z,7.57
2017-11-29T07:10:21.527Z,8.57
2017-11-29T07:12:49.729Z,11.25
2017-11-29T07:15:17.863Z,8.50
2017-11-29T07:17:45.987Z,10.23
2017-11-29T07:20:14.944Z,9.00
2017-11-29T07:22:43.112Z,8.38
2017-11-29T07:25:11.219Z,8.25
2017-11-29T07:27:39.328Z,7.62
2017-11-29T07:30:07.465Z,8.02
2017-11-29T07:32:35.582Z,7.78
2017-11-29T07:35:03.748Z,9.63
2017-11-29T07:37:32.613Z,9.77
2017-11-29T07:40:01.504Z,7.55
2017-11-29T07:42:30.428Z,8.00
2017-11-29T07:44:58.538Z,8.47
2017-11-29T07:47:26.665Z,10.27
2017-11-29T07:49:54.795Z,8.05
2017-11-29T07:52:22.928Z,7.32
2017-11-29T07:54:51.067Z,12.85
2017-11-29T07:57:19.964Z,9.77
2017-11-29T07:59:48.856Z,10.37
2017-11-29T08:02:16.991Z,7.80
2017-11-29T08:04:45.109Z,11.60
2017-11-29T08:07:13.229Z,7.97
2017-11-29T08:09:41.368Z,9.10
2017-11-29T08:12:09.554Z,10.85
2017-11-29T08:14:37.955Z,9.07
2017-11-29T08:17:06.113Z,8.52
2017-11-29T08:19:34.995Z,9.85
2017-11-29T08:22:03.135Z,9.70
2017-11-29T08:24:32.029Z,8.60
2017-11-29T08:27:00.931Z,8.93
2017-11-29T08:29:29.049Z,10.07
2017-11-29T08:31:57.167Z,8.85
2017-11-29T08:34:25.300Z,6.87
2017-11-29T08:36:53.435Z,6.97
2017-11-29T08:39:21.567Z,8.32
2017-11-29T08:41:52.490Z,6.90
2017-11-29T08:44:20.764Z,9.40
2017-11-29T08:46:48.954Z,9.10
2017-11-29T08:49:17.202Z,7.12
2017-11-29T08:51:45.349Z,6.90
2017-11-29T08:54:13.463Z,7.15
2017-11-29T08:56:41.665Z,10.55
2017-11-29T08:59:09.771Z,9.40
2017-11-29T09:01:37.912Z,8.27
2017-11-29T09:04:06.778Z,7.00
2017-11-29T09:06:35.085Z,6.22
2017-11-29T09:09:03.209Z,6.37
2017-11-29T09:11:31.401Z,6.80
2017-11-29T09:13:59.552Z,5.33
2017-11-29T09:16:27.690Z,6.50
2017-11-29T09:18:56.774Z,9.23
2017-11-29T09:21:25.652Z,6.60
2017-11-29T09:23:54.541Z,6.12
2017-11-29T09:26:23.433Z,5.12
2017-11-29T09:28:52.319Z,5.40
2017-11-29T09:31:21.191Z,5.05
2017-11-29T09:33:49.333Z,5.37
2017-11-29T09:36:17.585Z,5.55
2017-11-29T09:38:45.727Z,5.93
2017-11-29T09:41:14.605Z,5.37
2017-11-29T09:43:42.735Z,4.93
2017-11-29T09:46:10.856Z,5.87
2017-11-29T09:48:39.017Z,5.32
2017-11-29T09:51:07.157Z,5.65
2017-11-29T09:53:35.284Z,4.87
2017-11-29T09:56:04.169Z,4.97
2017-11-29T09:58:33.082Z,4.03
2017-11-29T10:01:03.873Z,3.87
2017-11-29T10:03:35.144Z,3.65
2017-11-29T10:06:03.262Z,5.30
2017-11-29T10:08:31.380Z,5.05
2017-11-29T10:11:00.464Z,4.25
2017-11-29T10:13:28.584Z,3.60
2017-11-29T10:15:56.747Z,4.50
2017-11-29T10:18:24.897Z,3.15
2017-11-29T10:20:53.798Z,4.00
2017-11-29T10:23:21.913Z,3.30
2017-11-29T10:25:50.047Z,3.83
2017-11-29T10:28:18.177Z,4.05
2017-11-29T10:30:46.321Z,4.50
2017-11-29T10:33:15.180Z,3.53
2017-11-29T10:35:43.321Z,3.30
2017-11-29T10:38:11.452Z,4.43
2017-11-29T10:40:40.370Z,4.30
2017-11-29T10:43:09.276Z,3.37
2017-11-29T10:45:37.409Z,4.20
2017-11-29T10:48:05.538Z,3.90
2017-11-29T10:50:33.673Z,4.47
2017-11-29T10:53:02.600Z,4.12
2017-11-29T10:55:30.717Z,3.90
2017-11-29T10:57:59.641Z,5.18
2017-11-29T11:00:28.524Z,3.87
2017-11-29T11:02:56.648Z,4.47
2017-11-29T11:05:24.859Z,4.72
2017-11-29T11:07:53.749Z,3.20
2017-11-29T11:10:22.666Z,5.65
2017-11-29T11:12:50.816Z,4.10
2017-11-29T11:15:19.714Z,3.93
2017-11-29T11:17:48.593Z,4.60
2017-11-29T11:20:16.731Z,4.97
2017-11-29T11:22:44.856Z,4.90
2017-11-29T11:25:12.986Z,4.70
2017-11-29T11:27:41.101Z,4.72
2017-11-29T11:30:09.373Z,4.80
2017-11-29T11:32:38.277Z,5.65
2017-11-29T11:35:06.430Z,4.70
2017-11-29T11:37:35.304Z,6.28
2017-11-29T11:40:04.216Z,4.75
2017-11-29T11:42:33.111Z,4.40
2017-11-29T11:45:01.237Z,4.40
2017-11-29T11:47:29.399Z,4.78
2017-11-29T11:49:57.547Z,6.57
2017-11-29T11:52:25.657Z,4.35
2017-11-29T11:54:53.795Z,5.00
2017-11-29T11:57:21.921Z,4.25
2017-11-29T11:59:53.075Z,6.40
2017-11-29T12:02:21.950Z,3.62
2017-11-29T12:04:51.055Z,5.43
2017-11-29T12:07:19.562Z,5.43
2017-11-29T12:09:47.676Z,6.20
2017-11-29T12:12:15.828Z,5.30
2017-11-29T12:14:43.953Z,5.20
2017-11-29T12:17:12.105Z,5.25
2017-11-29T12:19:40.212Z,6.35
2017-11-29T12:22:08.489Z,5.45
2017-11-29T12:24:36.598Z,7.68
2017-11-29T12:27:04.752Z,7.28
2017-11-29T12:29:33.609Z,6.63
2017-11-29T12:32:02.536Z,7.30
2017-11-29T12:34:30.645Z,6.62
2017-11-29T12:36:58.789Z,8.95
2017-11-29T12:39:26.917Z,5.10
2017-11-29T12:41:55.033Z,5.68
2017-11-29T12:44:23.188Z,5.50
2017-11-29T12:46:51.294Z,5.60
2017-11-29T12:49:31.248Z,6.03
2017-11-29T12:51:59.367Z,8.05
2017-11-29T12:54:27.492Z,8.32
2017-11-29T12:56:55.628Z,7.68
2017-11-29T12:59:23.779Z,5.47
2017-11-29T13:01:52.669Z,6.40
2017-11-29T13:04:20.807Z,7.70
2017-11-29T13:06:48.933Z,7.80
2017-11-29T13:09:17.064Z,7.25
2017-11-29T13:11:45.194Z,6.97
2017-11-29T13:14:13.304Z,7.07
2017-11-29T13:16:41.459Z,8.05
2017-11-29T13:19:09.555Z,9.40
2017-11-29T13:21:38.473Z,7.93
2017-11-29T13:24:07.336Z,7.20
2017-11-29T13:26:35.534Z,9.70
2017-11-29T13:29:04.415Z,11.40
2017-11-29T13:31:33.343Z,8.45
2017-11-29T13:34:01.465Z,8.90
2017-11-29T13:36:29.614Z,8.20
2017-11-29T13:38:57.760Z,9.18
2017-11-29T13:41:25.892Z,9.25
2017-11-29T13:43:54.033Z,7.70
2017-11-29T13:46:22.150Z,7.85
2017-11-29T13:48:50.259Z,7.68
2017-11-29T13:51:18.389Z,7.55
2017-11-29T13:53:51.305Z,7.90
2017-11-29T13:56:19.472Z,8.55
2017-11-29T13:58:47.601Z,8.60
2017-11-29T14:01:15.724Z,8.80
2017-11-29T14:03:43.841Z,7.60
2017-11-29T14:06:12.021Z,7.78
2017-11-29T14:08:40.139Z,7.57
2017-11-29T14:11:08.309Z,7.32
2017-11-29T14:13:37.279Z,7.65
2017-11-29T14:16:06.182Z,6.53
2017-11-29T14:18:34.367Z,6.78
2017-11-29T14:21:02.716Z,8.90
2017-11-29T14:23:30.845Z,9.48
2017-11-29T14:25:59.052Z,11.00
2017-11-29T14:28:28.307Z,10.80
2017-11-29T14:30:57.260Z,8.88
2017-11-29T14:33:26.161Z,9.75
2017-11-29T14:35:55.065Z,8.65
2017-11-29T14:38:23.981Z,8.60
2017-11-29T14:40:52.115Z,10.10
2017-11-29T14:43:20.238Z,8.13
2017-11-29T14:45:48.386Z,8.85
2017-11-29T14:48:17.299Z,8.95
2017-11-29T14:50:45.447Z,10.00
2017-11-29T14:53:14.371Z,9.18
2017-11-29T14:55:42.484Z,10.15
2017-11-29T14:58:10.645Z,10.80
2017-11-29T15:00:38.834Z,9.02
2017-11-29T15:03:07.059Z,7.80
2017-11-29T15:05:35.962Z,8.75
2017-11-29T15:08:04.076Z,9.13
2017-11-29T15:10:32.199Z,8.85
2017-11-29T15:13:00.325Z,7.57
2017-11-29T15:15:28.471Z,11.13
2017-11-29T15:17:57.607Z,9.45
2017-11-29T15:20:25.743Z,8.48
2017-11-29T15:22:53.886Z,9.27
2017-11-29T15:25:22.787Z,11.95
2017-11-29T15:27:51.729Z,8.85
2017-11-29T15:30:20.914Z,8.67
2017-11-29T15:32:49.034Z,8.23
2017-11-29T15:35:17.176Z,7.85
2017-11-29T15:37:45.329Z,6.80
2017-11-29T15:40:13.491Z,7.53
2017-11-29T15:42:41.678Z,8.25
2017-11-29T15:45:09.845Z,7.40
2017-11-29T15:47:38.757Z,8.77
2017-11-29T15:50:07.000Z,9.25
2017-11-29T15:52:35.875Z,9.27
2017-11-29T15:55:04.805Z,10.60
2017-11-29T15:57:32.921Z,10.20
2017-11-29T16:00:01.147Z,8.07
2017-11-29T16:02:29.328Z,10.65
2017-11-29T16:04:57.433Z,13.98
2017-11-29T16:07:25.564Z,16.05
2017-11-29T16:09:53.705Z,17.02
2017-11-29T16:12:21.829Z,16.23
2017-11-29T16:14:49.984Z,13.20
2017-11-29T16:17:18.102Z,9.88
2017-11-29T16:19:46.242Z,9.23
2017-11-29T16:22:14.372Z,11.20
2017-11-29T16:24:42.482Z,10.05
2017-11-29T16:27:10.627Z,10.68
2017-11-29T16:29:38.751Z,9.67
2017-11-29T16:32:07.003Z,12.02
2017-11-29T16:34:35.120Z,10.80
2017-11-29T16:37:03.996Z,15.50
2017-11-29T16:39:32.145Z,12.82
2017-11-29T16:42:00.309Z,12.55
2017-11-29T16:44:28.494Z,16.87
2017-11-29T16:46:56.637Z,17.80
2017-11-29T16:49:24.780Z,15.88
2017-11-29T16:51:53.661Z,13.98
2017-11-29T16:54:21.795Z,15.48
2017-11-29T16:56:49.911Z,19.27
2017-11-29T16:59:18.827Z,13.10
2017-11-29T17:01:46.958Z,13.27
2017-11-29T17:04:15.090Z,13.25
2017-11-29T17:06:43.252Z,15.75
2017-11-29T17:09:11.427Z,13.05
2017-11-29T17:11:39.568Z,15.40
2017-11-29T17:14:07.852Z,13.00
2017-11-29T17:16:36.022Z,13.73
2017-11-29T17:19:04.150Z,11.05
2017-11-29T17:21:32.307Z,11.27
2017-11-29T17:24:00.422Z,10.02
2017-11-29T17:26:28.568Z,18.62
2017-11-29T17:28:56.717Z,14.67
2017-11-29T17:31:24.860Z,16.50
2017-11-29T17:33:53.789Z,15.60
2017-11-29T17:36:21.932Z,14.23
2017-11-29T17:38:50.828Z,14.43
2017-11-29T17:41:19.730Z,14.63
2017-11-29T17:43:48.620Z,13.40
2017-11-29T17:46:16.796Z,10.98
2017-11-29T17:48:44.944Z,11.70
2017-11-29T17:51:13.852Z,13.73
2017-11-29T17:53:42.150Z,12.10
2017-11-29T17:56:10.289Z,14.93
2017-11-29T17:58:39.213Z,14.75
2017-11-29T18:01:07.362Z,13.13
2017-11-29T18:03:36.278Z,17.37
2017-11-29T18:06:14.652Z,16.02
2017-11-29T18:08:44.200Z,15.95
2017-11-29T18:11:12.381Z,16.25
2017-11-29T18:13:40.646Z,15.27
2017-11-29T18:16:08.847Z,17.15
2017-11-29T18:18:37.274Z,18.90
2017-11-29T18:21:06.190Z,11.45
2017-11-29T18:23:34.363Z,15.02
2017-11-29T18:26:02.781Z,16.85
2017-11-29T18:28:31.020Z,12.23
2017-11-29T18:30:59.967Z,15.02
2017-11-29T18:33:28.103Z,13.10
2017-11-29T18:35:56.995Z,12.80
2017-11-29T18:38:25.933Z,11.73
2017-11-29T18:40:54.164Z,10.38
2017-11-29T18:43:23.043Z,14.45
2017-11-29T18:45:51.192Z,12.00
2017-11-29T18:48:19.353Z,10.80
2017-11-29T18:50:47.514Z,14.45
2017-11-29T18:53:15.643Z,11.98
2017-11-29T18:55:43.765Z,12.90
2017-11-29T18:58:11.951Z,12.60
2017-11-29T19:00:40.731Z,13.13
2017-11-29T19:03:08.884Z,13.50
2017-11-29T19:05:37.005Z,13.35
2017-11-29T19:08:05.901Z,16.00
2017-11-29T19:10:34.555Z,16.45
2017-11-29T19:13:02.683Z,16.30
2017-11-29T19:15:30.981Z,15.23
2017-11-29T19:17:59.903Z,17.00
2017-11-29T19:20:28.148Z,17.77
2017-11-29T19:22:56.303Z,15.82
2017-11-29T19:25:25.112Z,18.92
2017-11-29T19:27:53.306Z,18.08
2017-11-29T19:30:21.757Z,15.40
2017-11-29T19:32:50.830Z,12.68
2017-11-29T19:35:19.048Z,14.05
2017-11-29T19:37:47.268Z,13.80
2017-11-29T19:40:16.224Z,14.38
2017-11-29T19:42:44.362Z,12.70
2017-11-29T19:45:12.542Z,14.40
2017-11-29T19:47:40.687Z,14.95
2017-11-29T19:50:09.581Z,17.00
2017-11-29T19:52:37.731Z,14.15
2017-11-29T19:55:06.659Z,17.10
2017-11-29T19:57:35.307Z,15.00
2017-11-29T20:00:04.335Z,15.63
2017-11-29T20:02:34.488Z,17.15
2017-11-29T20:05:03.392Z,13.82
2017-11-29T20:07:31.564Z,15.55
2017-11-29T20:09:59.839Z,16.30
2017-11-29T20:12:28.421Z,16.83
2017-11-29T20:14:56.767Z,14.50
2017-11-29T20:17:24.907Z,18.33
2017-11-29T20:19:54.085Z,14.75
2017-11-29T20:22:22.443Z,19.02
2017-11-29T20:24:50.827Z,31.15
2017-11-29T20:27:19.002Z,32.92
2017-11-29T20:29:47.226Z,34.77
2017-11-29T20:32:16.569Z,25.52
2017-11-29T20:34:45.324Z,28.38
2017-11-29T20:37:13.781Z,23.20
2017-11-29T20:39:41.918Z,21.52
2017-11-29T20:42:10.069Z,22.83
2017-11-29T20:44:38.217Z,17.80
2017-11-29T20:47:06.418Z,15.18
2017-11-29T20:49:34.632Z,15.32
2017-11-29T20:52:03.530Z,15.38
2017-11-29T20:54:31.708Z,18.15
2017-11-29T20:57:01.341Z,18.58
2017-11-29T20:59:29.479Z,15.90
2017-11-29T21:01:57.648Z,15.00
2017-11-29T21:04:25.832Z,17.52
2017-11-29T21:06:53.976Z,14.75
2017-11-29T21:09:22.149Z,14.45
2017-11-29T21:11:50.313Z,14.15
2017-11-29T21:14:18.472Z,15.57
2017-11-29T21:16:46.605Z,18.55
2017-11-29T21:19:14.721Z,18.58
2017-11-29T21:21:43.637Z,18.00
2017-11-29T21:24:11.811Z,19.23
2017-11-29T21:26:40.015Z,16.25
2017-11-29T21:29:08.158Z,15.37
2017-11-29T21:31:36.344Z,19.10
2017-11-29T21:34:04.489Z,20.20
2017-11-29T21:36:33.446Z,15.75
2017-11-29T21:39:01.759Z,17.37
2017-11-29T21:41:30.168Z,17.37
2017-11-29T21:43:58.340Z,20.63
2017-11-29T21:46:26.512Z,19.15
2017-11-29T21:48:54.771Z,17.55
2017-11-29T21:51:23.718Z,19.12
2017-11-29T21:53:52.087Z,20.65
2017-11-29T21:56:20.282Z,20.98
2017-11-29T21:58:48.453Z,19.27
2017-11-29T22:01:16.614Z,17.10
2017-11-29T22:03:44.741Z,19.17
2017-11-29T22:06:12.894Z,18.77
2017-11-29T22:08:41.970Z,20.95
2017-11-29T22:11:10.892Z,17.98
2017-11-29T22:13:39.096Z,17.90
2017-11-29T22:16:07.402Z,20.85
2017-11-29T22:18:35.502Z,17.33
2017-11-29T22:21:04.393Z,21.37
2017-11-29T22:23:33.302Z,19.08
2017-11-29T22:26:01.579Z,21.33
2017-11-29T22:28:29.732Z,23.27
2017-11-29T22:30:57.886Z,19.30
2017-11-29T22:33:26.787Z,20.42
2017-11-29T22:35:55.686Z,21.42
2017-11-29T22:38:23.954Z,20.00
2017-11-29T22:40:52.855Z,19.95
2017-11-29T22:43:21.334Z,19.87
2017-11-29T22:45:50.329Z,18.62
2017-11-29T22:48:19.251Z,19.87
2017-11-29T22:50:47.403Z,18.67
2017-11-29T22:53:15.543Z,22.95
2017-11-29T22:55:44.457Z,20.30
2017-11-29T22:58:12.599Z,21.55
2017-11-29T23:00:41.498Z,19.27
2017-11-29T23:03:10.436Z,20.20
2017-11-29T23:05:38.613Z,25.65
2017-11-29T23:08:07.806Z,18.87
2017-11-29T23:10:36.757Z,22.25
2017-11-29T23:13:05.666Z,21.85
2017-11-29T23:15:33.911Z,21.45
2017-11-29T23:18:02.834Z,22.75
2017-11-29T23:20:30.957Z,19.62
2017-11-29T23:22:59.075Z,21.08
2017-11-29T23:25:27.321Z,26.37
2017-11-29T23:27:56.289Z,20.23
2017-11-29T23:30:24.450Z,20.47
2017-11-29T23:32:52.620Z,20.35
2017-11-29T23:35:20.930Z,20.25
2017-11-29T23:37:49.839Z,23.60
2017-11-29T23:40:18.064Z,19.02
2017-11-29T23:42:46.202Z,17.62
2017-11-29T23:45:14.388Z,15.27
2017-11-29T23:47:42.661Z,15.77
2017-11-29T23:50:10.816Z,13.93
2017-11-29T23:52:38.968Z,12.35
2017-11-29T23:55:07.895Z,12.30
2017-11-29T23:57:36.097Z,12.63
